KCMH/CMH METAR and TAF weather

Enter ICAO airport designator
Station Type Date Time Source
KCMH METAR 2018/01/19 22:51 UTC NOAA

KCMH 192251Z 19008KT 10SM SCT250 02/M07 A3003 RMK AO2 SLP179 T00221072


Station Type Date Time Source
KCMH Decoded METAR 2018/01/19 22:51 UTC NOAA

PORT COLUMBUS INTERNATIONAL AIRPORT, OH, United States (KCMH) 40-00N 82-53W 247M
Jan 19, 2018 - 05:51 PM EST / 2018.01.19 2251 UTC
Wind: from the S (190 degrees) at 9 MPH (8 KT):0
Visibility: 10 mile(s):0
Sky conditions: partly cloudy
Temperature: 36.0 F (2.2 C)
Dew Point: 19.0 F (-7.2 C)
Relative Humidity: 49%
Pressure (altimeter): 30.03 in. Hg (1016 hPa)
ob: KCMH 192251Z 19008KT 10SM SCT250 02/M07 A3003 RMK AO2 SLP179 T00221072
cycle: 23

Station Type Date Time Source
KCMH TAF 2018/01/19 21:58 UTC NOAA

TAF
AMD KCMH 192057Z 1921/2018 21007KT P6SM BKN250
FM201700 22010KT P6SM BKN025


Example: see airport list